sensor_id;sensor_type;location;lat;lon;timestamp;P1;durP1;ratioP1;P2;durP2;ratioP2
13793;SDS011;31160;49.500;7.772;2023-05-10T00:01:58;2.97;;;1.53;;
13793;SDS011;31160;49.500;7.772;2023-05-10T00:04:25;1.67;;;1.37;;
13793;SDS011;31160;49.500;7.772;2023-05-10T00:06:53;1.87;;;1.50;;
13793;SDS011;31160;49.500;7.772;2023-05-10T00:09:21;2.80;;;1.60;;
13793;SDS011;31160;49.500;7.772;2023-05-10T00:11:47;1.63;;;1.30;;
13793;SDS011;31160;49.500;7.772;2023-05-10T00:14:14;2.40;;;1.33;;
13793;SDS011;31160;49.500;7.772;2023-05-10T00:16:41;1.47;;;1.37;;
13793;SDS011;31160;49.500;7.772;2023-05-10T00:19:07;4.03;;;1.50;;
13793;SDS011;31160;49.500;7.772;2023-05-10T00:21:34;3.70;;;1.40;;
13793;SDS011;31160;49.500;7.772;2023-05-10T00:24:01;1.63;;;1.10;;
13793;SDS011;31160;49.500;7.772;2023-05-10T00:26:28;1.30;;;1.20;;
13793;SDS011;31160;49.500;7.772;2023-05-10T00:28:55;1.60;;;1.10;;
13793;SDS011;31160;49.500;7.772;2023-05-10T00:31:22;2.63;;;1.30;;
13793;SDS011;31160;49.500;7.772;2023-05-10T00:33:49;3.03;;;1.20;;
13793;SDS011;31160;49.500;7.772;2023-05-10T00:36:16;1.57;;;1.10;;
13793;SDS011;31160;49.500;7.772;2023-05-10T00:38:43;1.57;;;1.40;;
13793;SDS011;31160;49.500;7.772;2023-05-10T00:41:09;1.40;;;1.30;;
13793;SDS011;31160;49.500;7.772;2023-05-10T00:43:38;1.40;;;1.30;;
13793;SDS011;31160;49.500;7.772;2023-05-10T00:46:05;2.20;;;1.70;;
13793;SDS011;31160;49.500;7.772;2023-05-10T00:48:32;1.87;;;1.50;;
13793;SDS011;31160;49.500;7.772;2023-05-10T00:51:00;1.87;;;1.60;;
13793;SDS011;31160;49.500;7.772;2023-05-10T00:53:27;4.87;;;1.50;;
13793;SDS011;31160;49.500;7.772;2023-05-10T00:55:54;1.83;;;1.43;;
13793;SDS011;31160;49.500;7.772;2023-05-10T00:58:21;1.67;;;1.57;;
13793;SDS011;31160;49.500;7.772;2023-05-10T01:00:50;1.47;;;1.37;;
13793;SDS011;31160;49.500;7.772;2023-05-10T01:03:17;2.80;;;1.60;;
13793;SDS011;31160;49.500;7.772;2023-05-10T01:05:44;1.50;;;1.40;;
13793;SDS011;31160;49.500;7.772;2023-05-10T01:08:11;1.67;;;1.57;;
13793;SDS011;31160;49.500;7.772;2023-05-10T01:10:38;1.77;;;1.67;;
13793;SDS011;31160;49.500;7.772;2023-05-10T01:13:05;1.70;;;1.60;;
13793;SDS011;31160;49.500;7.772;2023-05-10T01:15:31;3.13;;;1.97;;
13793;SDS011;31160;49.500;7.772;2023-05-10T01:17:59;4.60;;;1.67;;
13793;SDS011;31160;49.500;7.772;2023-05-10T01:20:26;3.43;;;1.70;;
13793;SDS011;31160;49.500;7.772;2023-05-10T01:23:11;2.27;;;1.57;;
13793;SDS011;31160;49.500;7.772;2023-05-10T01:33:47;2.27;;;1.83;;
13793;SDS011;31160;49.500;7.772;2023-05-10T01:39:19;6.30;;;1.80;;
13793;SDS011;31160;49.500;7.772;2023-05-10T01:42:03;2.17;;;1.97;;
13793;SDS011;31160;49.500;7.772;2023-05-10T01:44:41;2.23;;;1.90;;
13793;SDS011;31160;49.500;7.772;2023-05-10T01:47:15;2.07;;;1.80;;
13793;SDS011;31160;49.500;7.772;2023-05-10T01:49:50;7.20;;;2.03;;
13793;SDS011;31160;49.500;7.772;2023-05-10T01:52:20;2.40;;;1.80;;
13793;SDS011;31160;49.500;7.772;2023-05-10T01:54:53;2.37;;;1.90;;
13793;SDS011;31160;49.500;7.772;2023-05-10T01:57:25;2.77;;;2.33;;
13793;SDS011;31160;49.500;7.772;2023-05-10T01:59:58;2.17;;;1.97;;
13793;SDS011;31160;49.500;7.772;2023-05-10T02:02:27;2.50;;;2.30;;
13793;SDS011;31160;49.500;7.772;2023-05-10T02:04:55;4.87;;;2.17;;
13793;SDS011;31160;49.500;7.772;2023-05-10T02:07:23;3.70;;;2.37;;
13793;SDS011;31160;49.500;7.772;2023-05-10T02:09:50;3.47;;;2.27;;
13793;SDS011;31160;49.500;7.772;2023-05-10T02:12:17;3.40;;;2.47;;
13793;SDS011;31160;49.500;7.772;2023-05-10T02:14:46;2.43;;;2.23;;
13793;SDS011;31160;49.500;7.772;2023-05-10T02:17:14;2.30;;;2.10;;
13793;SDS011;31160;49.500;7.772;2023-05-10T02:19:42;3.60;;;2.37;;
13793;SDS011;31160;49.500;7.772;2023-05-10T02:22:10;4.10;;;2.47;;
13793;SDS011;31160;49.500;7.772;2023-05-10T02:24:38;2.40;;;2.20;;
13793;SDS011;31160;49.500;7.772;2023-05-10T02:27:06;2.70;;;2.50;;
13793;SDS011;31160;49.500;7.772;2023-05-10T02:29:35;2.30;;;2.10;;
13793;SDS011;31160;49.500;7.772;2023-05-10T02:32:03;3.17;;;2.50;;
13793;SDS011;31160;49.500;7.772;2023-05-10T02:34:30;5.07;;;2.40;;
13793;SDS011;31160;49.500;7.772;2023-05-10T02:36:58;4.30;;;2.23;;
13793;SDS011;31160;49.500;7.772;2023-05-10T02:39:26;7.43;;;2.67;;
13793;SDS011;31160;49.500;7.772;2023-05-10T02:41:55;5.17;;;2.50;;
13793;SDS011;31160;49.500;7.772;2023-05-10T02:44:23;3.37;;;2.33;;
13793;SDS011;31160;49.500;7.772;2023-05-10T02:46:53;3.50;;;2.27;;
13793;SDS011;31160;49.500;7.772;2023-05-10T02:49:22;2.53;;;2.33;;
13793;SDS011;31160;49.500;7.772;2023-05-10T02:51:51;3.00;;;2.37;;
13793;SDS011;31160;49.500;7.772;2023-05-10T02:54:24;2.63;;;2.10;;
13793;SDS011;31160;49.500;7.772;2023-05-10T02:56:59;2.57;;;2.37;;
13793;SDS011;31160;49.500;7.772;2023-05-10T02:59:29;4.00;;;2.90;;
13793;SDS011;31160;49.500;7.772;2023-05-10T03:01:57;3.60;;;2.90;;
13793;SDS011;31160;49.500;7.772;2023-05-10T03:04:23;6.20;;;2.50;;
13793;SDS011;31160;49.500;7.772;2023-05-10T03:06:53;3.63;;;3.23;;
13793;SDS011;31160;49.500;7.772;2023-05-10T03:09:20;6.47;;;3.73;;
13793;SDS011;31160;49.500;7.772;2023-05-10T03:17:11;3.83;;;2.83;;
13793;SDS011;31160;49.500;7.772;2023-05-10T03:22:26;3.53;;;2.53;;
13793;SDS011;31160;49.500;7.772;2023-05-10T03:25:00;3.17;;;2.87;;
13793;SDS011;31160;49.500;7.772;2023-05-10T03:27:33;5.73;;;2.90;;
13793;SDS011;31160;49.500;7.772;2023-05-10T03:30:02;3.40;;;3.10;;
13793;SDS011;31160;49.500;7.772;2023-05-10T03:32:31;3.40;;;2.90;;
13793;SDS011;31160;49.500;7.772;2023-05-10T03:35:00;3.87;;;2.90;;
13793;SDS011;31160;49.500;7.772;2023-05-10T03:37:27;3.13;;;2.70;;
13793;SDS011;31160;49.500;7.772;2023-05-10T03:39:54;4.00;;;3.30;;
13793;SDS011;31160;49.500;7.772;2023-05-10T03:42:21;4.23;;;3.70;;
13793;SDS011;31160;49.500;7.772;2023-05-10T03:44:47;3.40;;;3.10;;
13793;SDS011;31160;49.500;7.772;2023-05-10T03:47:16;7.90;;;3.17;;
13793;SDS011;31160;49.500;7.772;2023-05-10T03:49:42;3.70;;;2.87;;
13793;SDS011;31160;49.500;7.772;2023-05-10T03:52:10;4.93;;;3.33;;
13793;SDS011;31160;49.500;7.772;2023-05-10T03:54:38;3.90;;;3.50;;
13793;SDS011;31160;49.500;7.772;2023-05-10T03:57:04;3.70;;;3.40;;
13793;SDS011;31160;49.500;7.772;2023-05-10T03:59:31;5.23;;;3.47;;
13793;SDS011;31160;49.500;7.772;2023-05-10T04:01:58;6.13;;;3.57;;
13793;SDS011;31160;49.500;7.772;2023-05-10T04:04:25;4.20;;;3.77;;
13793;SDS011;31160;49.500;7.772;2023-05-10T04:06:52;5.13;;;3.70;;
13793;SDS011;31160;49.500;7.772;2023-05-10T04:09:18;4.27;;;3.83;;
13793;SDS011;31160;49.500;7.772;2023-05-10T04:11:45;4.97;;;4.47;;
13793;SDS011;31160;49.500;7.772;2023-05-10T04:14:12;6.13;;;4.03;;
13793;SDS011;31160;49.500;7.772;2023-05-10T04:16:39;4.90;;;3.67;;
13793;SDS011;31160;49.500;7.772;2023-05-10T04:19:05;4.73;;;4.27;;
13793;SDS011;31160;49.500;7.772;2023-05-10T04:21:32;4.40;;;4.00;;
13793;SDS011;31160;49.500;7.772;2023-05-10T04:23:59;4.93;;;4.10;;
13793;SDS011;31160;49.500;7.772;2023-05-10T04:26:26;6.97;;;4.43;;
13793;SDS011;31160;49.500;7.772;2023-05-10T04:28:52;6.77;;;4.57;;
13793;SDS011;31160;49.500;7.772;2023-05-10T04:31:19;4.63;;;4.13;;
13793;SDS011;31160;49.500;7.772;2023-05-10T04:33:46;6.33;;;5.27;;
13793;SDS011;31160;49.500;7.772;2023-05-10T04:36:12;6.13;;;4.10;;
13793;SDS011;31160;49.500;7.772;2023-05-10T04:38:39;6.40;;;4.07;;
13793;SDS011;31160;49.500;7.772;2023-05-10T04:41:06;5.60;;;4.40;;
13793;SDS011;31160;49.500;7.772;2023-05-10T04:43:34;5.93;;;3.60;;
13793;SDS011;31160;49.500;7.772;2023-05-10T04:46:02;5.90;;;3.70;;
13793;SDS011;31160;49.500;7.772;2023-05-10T04:48:29;5.57;;;3.50;;
13793;SDS011;31160;49.500;7.772;2023-05-10T04:50:56;3.97;;;3.57;;
13793;SDS011;31160;49.500;7.772;2023-05-10T04:53:23;4.83;;;3.40;;
13793;SDS011;31160;49.500;7.772;2023-05-10T04:55:50;3.63;;;3.33;;
13793;SDS011;31160;49.500;7.772;2023-05-10T04:58:16;2.73;;;2.50;;
13793;SDS011;31160;49.500;7.772;2023-05-10T05:00:43;3.90;;;2.73;;
13793;SDS011;31160;49.500;7.772;2023-05-10T05:03:10;2.27;;;2.07;;
13793;SDS011;31160;49.500;7.772;2023-05-10T05:05:37;4.13;;;2.10;;
13793;SDS011;31160;49.500;7.772;2023-05-10T05:08:05;2.33;;;2.00;;
13793;SDS011;31160;49.500;7.772;2023-05-10T05:10:32;2.40;;;1.60;;
13793;SDS011;31160;49.500;7.772;2023-05-10T05:12:59;2.83;;;1.70;;
13793;SDS011;31160;49.500;7.772;2023-05-10T05:15:26;3.40;;;1.73;;
13793;SDS011;31160;49.500;7.772;2023-05-10T05:17:53;1.60;;;1.50;;
13793;SDS011;31160;49.500;7.772;2023-05-10T05:20:19;2.50;;;1.67;;
13793;SDS011;31160;49.500;7.772;2023-05-10T05:22:46;2.03;;;1.30;;
13793;SDS011;31160;49.500;7.772;2023-05-10T05:25:13;3.33;;;1.47;;
13793;SDS011;31160;49.500;7.772;2023-05-10T05:27:41;3.10;;;1.90;;
13793;SDS011;31160;49.500;7.772;2023-05-10T05:30:08;2.17;;;1.80;;
13793;SDS011;31160;49.500;7.772;2023-05-10T05:32:35;2.20;;;1.70;;
13793;SDS011;31160;49.500;7.772;2023-05-10T05:35:02;4.83;;;1.80;;
13793;SDS011;31160;49.500;7.772;2023-05-10T05:37:29;3.50;;;1.67;;
13793;SDS011;31160;49.500;7.772;2023-05-10T05:39:55;2.67;;;1.80;;
13793;SDS011;31160;49.500;7.772;2023-05-10T05:42:22;3.87;;;1.73;;
13793;SDS011;31160;49.500;7.772;2023-05-10T05:44:49;1.80;;;1.47;;
13793;SDS011;31160;49.500;7.772;2023-05-10T05:47:15;1.90;;;1.80;;
13793;SDS011;31160;49.500;7.772;2023-05-10T05:49:42;3.63;;;1.67;;
13793;SDS011;31160;49.500;7.772;2023-05-10T05:52:11;2.17;;;1.70;;
13793;SDS011;31160;49.500;7.772;2023-05-10T05:54:38;4.23;;;2.00;;
13793;SDS011;31160;49.500;7.772;2023-05-10T05:57:05;2.77;;;1.63;;
13793;SDS011;31160;49.500;7.772;2023-05-10T05:59:32;3.33;;;1.60;;
13793;SDS011;31160;49.500;7.772;2023-05-10T06:01:59;2.03;;;1.60;;
13793;SDS011;31160;49.500;7.772;2023-05-10T06:04:26;5.60;;;1.67;;
13793;SDS011;31160;49.500;7.772;2023-05-10T06:06:54;1.97;;;1.60;;
13793;SDS011;31160;49.500;7.772;2023-05-10T06:09:20;4.17;;;1.50;;
13793;SDS011;31160;49.500;7.772;2023-05-10T06:11:47;2.97;;;1.83;;
13793;SDS011;31160;49.500;7.772;2023-05-10T06:14:14;2.37;;;2.10;;
13793;SDS011;31160;49.500;7.772;2023-05-10T06:16:41;3.33;;;2.00;;
13793;SDS011;31160;49.500;7.772;2023-05-10T06:19:07;3.97;;;1.40;;
13793;SDS011;31160;49.500;7.772;2023-05-10T06:21:34;1.60;;;1.23;;
13793;SDS011;31160;49.500;7.772;2023-05-10T06:24:01;1.73;;;1.33;;
13793;SDS011;31160;49.500;7.772;2023-05-10T06:26:28;4.97;;;1.60;;
13793;SDS011;31160;49.500;7.772;2023-05-10T06:28:55;2.77;;;1.03;;
13793;SDS011;31160;49.500;7.772;2023-05-10T06:31:22;4.87;;;1.37;;
13793;SDS011;31160;49.500;7.772;2023-05-10T06:33:49;1.03;;;0.90;;
13793;SDS011;31160;49.500;7.772;2023-05-10T06:36:15;1.47;;;0.80;;
13793;SDS011;31160;49.500;7.772;2023-05-10T06:38:42;2.20;;;1.20;;
13793;SDS011;31160;49.500;7.772;2023-05-10T06:41:09;1.33;;;1.00;;
13793;SDS011;31160;49.500;7.772;2023-05-10T06:43:36;1.87;;;1.00;;
13793;SDS011;31160;49.500;7.772;2023-05-10T06:46:06;1.17;;;0.77;;
13793;SDS011;31160;49.500;7.772;2023-05-10T06:48:33;1.33;;;0.70;;
13793;SDS011;31160;49.500;7.772;2023-05-10T06:51:00;2.33;;;1.10;;
13793;SDS011;31160;49.500;7.772;2023-05-10T06:53:27;2.70;;;0.63;;
13793;SDS011;31160;49.500;7.772;2023-05-10T06:55:53;2.10;;;1.10;;
13793;SDS011;31160;49.500;7.772;2023-05-10T06:58:20;1.83;;;0.70;;
13793;SDS011;31160;49.500;7.772;2023-05-10T07:00:47;3.13;;;1.13;;
13793;SDS011;31160;49.500;7.772;2023-05-10T07:03:14;2.13;;;0.83;;
13793;SDS011;31160;49.500;7.772;2023-05-10T07:05:41;1.03;;;0.77;;
13793;SDS011;31160;49.500;7.772;2023-05-10T07:08:08;2.00;;;0.90;;
13793;SDS011;31160;49.500;7.772;2023-05-10T07:10:35;1.23;;;0.90;;
13793;SDS011;31160;49.500;7.772;2023-05-10T07:13:02;1.67;;;0.90;;
13793;SDS011;31160;49.500;7.772;2023-05-10T07:15:28;2.67;;;1.10;;
13793;SDS011;31160;49.500;7.772;2023-05-10T07:17:55;2.00;;;1.03;;
13793;SDS011;31160;49.500;7.772;2023-05-10T07:20:23;2.17;;;1.10;;
13793;SDS011;31160;49.500;7.772;2023-05-10T07:22:50;2.03;;;1.10;;
13793;SDS011;31160;49.500;7.772;2023-05-10T07:25:17;2.30;;;1.10;;
13793;SDS011;31160;49.500;7.772;2023-05-10T07:27:44;2.60;;;1.03;;
13793;SDS011;31160;49.500;7.772;2023-05-10T07:30:11;1.83;;;1.20;;
13793;SDS011;31160;49.500;7.772;2023-05-10T07:32:38;2.60;;;1.13;;
13793;SDS011;31160;49.500;7.772;2023-05-10T07:35:05;1.93;;;1.00;;
13793;SDS011;31160;49.500;7.772;2023-05-10T07:37:33;3.50;;;1.17;;
13793;SDS011;31160;49.500;7.772;2023-05-10T07:39:59;1.80;;;1.30;;
13793;SDS011;31160;49.500;7.772;2023-05-10T07:42:26;3.83;;;1.17;;
13793;SDS011;31160;49.500;7.772;2023-05-10T07:44:53;2.23;;;1.00;;
13793;SDS011;31160;49.500;7.772;2023-05-10T07:47:20;4.87;;;1.10;;
13793;SDS011;31160;49.500;7.772;2023-05-10T07:49:47;1.27;;;1.00;;
13793;SDS011;31160;49.500;7.772;2023-05-10T07:52:13;1.30;;;1.10;;
13793;SDS011;31160;49.500;7.772;2023-05-10T07:54:41;4.03;;;1.20;;
13793;SDS011;31160;49.500;7.772;2023-05-10T07:57:08;7.90;;;1.50;;
13793;SDS011;31160;49.500;7.772;2023-05-10T07:59:35;2.07;;;1.20;;
13793;SDS011;31160;49.500;7.772;2023-05-10T08:02:02;1.63;;;1.00;;
13793;SDS011;31160;49.500;7.772;2023-05-10T08:04:29;1.70;;;1.10;;
13793;SDS011;31160;49.500;7.772;2023-05-10T08:06:56;2.40;;;0.80;;
13793;SDS011;31160;49.500;7.772;2023-05-10T08:09:22;1.10;;;0.70;;
13793;SDS011;31160;49.500;7.772;2023-05-10T08:11:50;1.87;;;0.80;;
13793;SDS011;31160;49.500;7.772;2023-05-10T08:14:17;3.70;;;0.97;;
13793;SDS011;31160;49.500;7.772;2023-05-10T08:16:44;1.33;;;0.70;;
13793;SDS011;31160;49.500;7.772;2023-05-10T08:19:10;2.57;;;0.70;;
13793;SDS011;31160;49.500;7.772;2023-05-10T08:21:37;2.00;;;0.60;;
13793;SDS011;31160;49.500;7.772;2023-05-10T08:24:06;1.13;;;0.70;;
13793;SDS011;31160;49.500;7.772;2023-05-10T08:26:33;1.73;;;0.70;;
13793;SDS011;31160;49.500;7.772;2023-05-10T08:29:00;1.90;;;0.80;;
13793;SDS011;31160;49.500;7.772;2023-05-10T08:31:26;1.07;;;0.93;;
13793;SDS011;31160;49.500;7.772;2023-05-10T08:33:53;1.97;;;1.50;;
13793;SDS011;31160;49.500;7.772;2023-05-10T08:36:20;0.90;;;0.90;;
13793;SDS011;31160;49.500;7.772;2023-05-10T08:38:50;1.67;;;1.10;;
13793;SDS011;31160;49.500;7.772;2023-05-10T08:41:20;1.53;;;0.90;;
13793;SDS011;31160;49.500;7.772;2023-05-10T08:43:50;1.10;;;1.00;;
13793;SDS011;31160;49.500;7.772;2023-05-10T08:46:18;1.07;;;0.90;;
13793;SDS011;31160;49.500;7.772;2023-05-10T08:48:47;6.80;;;4.40;;
13793;SDS011;31160;49.500;7.772;2023-05-10T08:51:17;1.87;;;1.50;;
13793;SDS011;31160;49.500;7.772;2023-05-10T08:53:45;2.57;;;1.10;;
13793;SDS011;31160;49.500;7.772;2023-05-10T08:56:12;11.20;;;1.17;;
13793;SDS011;31160;49.500;7.772;2023-05-10T08:58:41;1.23;;;1.03;;
13793;SDS011;31160;49.500;7.772;2023-05-10T09:01:08;0.80;;;0.80;;
13793;SDS011;31160;49.500;7.772;2023-05-10T09:03:37;3.03;;;0.70;;
13793;SDS011;31160;49.500;7.772;2023-05-10T09:06:05;3.53;;;2.73;;
13793;SDS011;31160;49.500;7.772;2023-05-10T09:08:33;0.93;;;0.87;;
13793;SDS011;31160;49.500;7.772;2023-05-10T09:11:00;4.10;;;1.70;;
13793;SDS011;31160;49.500;7.772;2023-05-10T09:13:27;3.07;;;1.00;;
13793;SDS011;31160;49.500;7.772;2023-05-10T09:15:55;0.80;;;0.80;;
13793;SDS011;31160;49.500;7.772;2023-05-10T09:18:27;1.27;;;0.90;;
13793;SDS011;31160;49.500;7.772;2023-05-10T09:20:54;2.13;;;0.70;;
13793;SDS011;31160;49.500;7.772;2023-05-10T09:23:21;10.30;;;4.43;;
13793;SDS011;31160;49.500;7.772;2023-05-10T09:25:48;0.80;;;0.70;;
13793;SDS011;31160;49.500;7.772;2023-05-10T09:28:31;4.83;;;1.57;;
13793;SDS011;31160;49.500;7.772;2023-05-10T09:31:15;2.17;;;0.97;;
13793;SDS011;31160;49.500;7.772;2023-05-10T09:33:46;3.63;;;0.60;;
13793;SDS011;31160;49.500;7.772;2023-05-10T09:36:14;2.40;;;0.80;;
13793;SDS011;31160;49.500;7.772;2023-05-10T09:38:48;1.50;;;0.40;;
13793;SDS011;31160;49.500;7.772;2023-05-10T09:41:18;0.73;;;0.40;;
13793;SDS011;31160;49.500;7.772;2023-05-10T09:43:46;1.90;;;0.53;;
13793;SDS011;31160;49.500;7.772;2023-05-10T09:46:17;1.83;;;0.60;;
13793;SDS011;31160;49.500;7.772;2023-05-10T09:48:47;0.70;;;0.53;;
13793;SDS011;31160;49.500;7.772;2023-05-10T09:51:20;2.10;;;1.13;;
13793;SDS011;31160;49.500;7.772;2023-05-10T09:53:48;2.73;;;1.93;;
13793;SDS011;31160;49.500;7.772;2023-05-10T09:56:34;4.97;;;0.93;;
13793;SDS011;31160;49.500;7.772;2023-05-10T09:59:02;1.17;;;0.53;;
13793;SDS011;31160;49.500;7.772;2023-05-10T10:01:29;2.50;;;0.80;;
13793;SDS011;31160;49.500;7.772;2023-05-10T10:03:57;3.00;;;1.10;;
13793;SDS011;31160;49.500;7.772;2023-05-10T10:06:24;2.87;;;1.20;;
13793;SDS011;31160;49.500;7.772;2023-05-10T10:08:55;1.80;;;1.00;;
13793;SDS011;31160;49.500;7.772;2023-05-10T10:11:22;0.83;;;0.63;;
13793;SDS011;31160;49.500;7.772;2023-05-10T10:13:50;1.40;;;0.60;;
13793;SDS011;31160;49.500;7.772;2023-05-10T10:16:17;1.23;;;0.63;;
13793;SDS011;31160;49.500;7.772;2023-05-10T10:18:43;2.23;;;0.77;;
13793;SDS011;31160;49.500;7.772;2023-05-10T10:21:10;1.50;;;0.60;;
13793;SDS011;31160;49.500;7.772;2023-05-10T10:23:42;3.13;;;0.70;;
13793;SDS011;31160;49.500;7.772;2023-05-10T10:26:09;0.70;;;0.60;;
13793;SDS011;31160;49.500;7.772;2023-05-10T10:31:44;2.00;;;0.50;;
13793;SDS011;31160;49.500;7.772;2023-05-10T10:34:29;6.20;;;1.10;;
13793;SDS011;31160;49.500;7.772;2023-05-10T10:36:57;2.37;;;0.80;;
13793;SDS011;31160;49.500;7.772;2023-05-10T10:39:29;2.87;;;0.80;;
13793;SDS011;31160;49.500;7.772;2023-05-10T10:41:57;2.10;;;0.77;;
13793;SDS011;31160;49.500;7.772;2023-05-10T10:44:25;1.37;;;0.73;;
13793;SDS011;31160;49.500;7.772;2023-05-10T10:49:33;3.83;;;0.70;;
13793;SDS011;31160;49.500;7.772;2023-05-10T10:52:22;1.20;;;0.60;;
13793;SDS011;31160;49.500;7.772;2023-05-10T10:54:53;2.67;;;0.60;;
13793;SDS011;31160;49.500;7.772;2023-05-10T10:57:23;1.53;;;0.60;;
13793;SDS011;31160;49.500;7.772;2023-05-10T11:02:59;1.43;;;0.60;;
13793;SDS011;31160;49.500;7.772;2023-05-10T11:08:08;5.10;;;1.07;;
13793;SDS011;31160;49.500;7.772;2023-05-10T11:10:40;1.10;;;0.50;;
13793;SDS011;31160;49.500;7.772;2023-05-10T11:13:15;1.10;;;0.50;;
13793;SDS011;31160;49.500;7.772;2023-05-10T11:15:48;4.17;;;0.67;;
13793;SDS011;31160;49.500;7.772;2023-05-10T11:18:16;2.97;;;0.60;;
13793;SDS011;31160;49.500;7.772;2023-05-10T11:20:50;1.87;;;0.60;;
13793;SDS011;31160;49.500;7.772;2023-05-10T11:23:17;2.77;;;0.70;;
13793;SDS011;31160;49.500;7.772;2023-05-10T11:25:45;3.37;;;1.03;;
13793;SDS011;31160;49.500;7.772;2023-05-10T11:28:13;5.60;;;0.83;;
13793;SDS011;31160;49.500;7.772;2023-05-10T11:30:41;2.63;;;0.60;;
13793;SDS011;31160;49.500;7.772;2023-05-10T11:33:11;1.60;;;0.60;;
13793;SDS011;31160;49.500;7.772;2023-05-10T11:35:42;1.47;;;0.67;;
13793;SDS011;31160;49.500;7.772;2023-05-10T11:38:10;2.77;;;0.50;;
13793;SDS011;31160;49.500;7.772;2023-05-10T11:40:38;1.20;;;0.80;;
13793;SDS011;31160;49.500;7.772;2023-05-10T11:43:05;2.97;;;0.50;;
13793;SDS011;31160;49.500;7.772;2023-05-10T11:45:32;1.83;;;0.60;;
13793;SDS011;31160;49.500;7.772;2023-05-10T11:48:00;1.33;;;0.50;;
13793;SDS011;31160;49.500;7.772;2023-05-10T11:50:28;3.50;;;0.60;;
13793;SDS011;31160;49.500;7.772;2023-05-10T11:52:55;2.07;;;0.60;;
13793;SDS011;31160;49.500;7.772;2023-05-10T11:55:23;2.67;;;0.60;;
13793;SDS011;31160;49.500;7.772;2023-05-10T11:57:59;2.67;;;0.67;;
13793;SDS011;31160;49.500;7.772;2023-05-10T12:00:27;4.90;;;1.60;;
13793;SDS011;31160;49.500;7.772;2023-05-10T12:02:54;1.73;;;0.40;;
13793;SDS011;31160;49.500;7.772;2023-05-10T12:05:21;2.53;;;0.57;;
13793;SDS011;31160;49.500;7.772;2023-05-10T12:07:48;3.90;;;0.53;;
13793;SDS011;31160;49.500;7.772;2023-05-10T12:10:14;1.37;;;0.33;;
13793;SDS011;31160;49.500;7.772;2023-05-10T12:12:44;4.67;;;0.70;;
13793;SDS011;31160;49.500;7.772;2023-05-10T12:15:12;3.80;;;0.73;;
13793;SDS011;31160;49.500;7.772;2023-05-10T12:17:48;1.33;;;0.40;;
13793;SDS011;31160;49.500;7.772;2023-05-10T12:20:19;2.50;;;0.70;;
13793;SDS011;31160;49.500;7.772;2023-05-10T12:22:54;2.10;;;0.60;;
13793;SDS011;31160;49.500;7.772;2023-05-10T12:25:29;1.83;;;0.50;;
13793;SDS011;31160;49.500;7.772;2023-05-10T12:27:58;3.13;;;0.50;;
13793;SDS011;31160;49.500;7.772;2023-05-10T12:30:28;0.70;;;0.43;;
13793;SDS011;31160;49.500;7.772;2023-05-10T12:35:38;3.93;;;0.37;;
13793;SDS011;31160;49.500;7.772;2023-05-10T12:40:56;4.20;;;0.60;;
13793;SDS011;31160;49.500;7.772;2023-05-10T12:43:23;3.67;;;0.40;;
13793;SDS011;31160;49.500;7.772;2023-05-10T12:45:50;1.83;;;0.40;;
13793;SDS011;31160;49.500;7.772;2023-05-10T12:48:17;3.10;;;0.40;;
13793;SDS011;31160;49.500;7.772;2023-05-10T12:50:44;3.17;;;0.53;;
13793;SDS011;31160;49.500;7.772;2023-05-10T12:53:11;2.10;;;0.40;;
13793;SDS011;31160;49.500;7.772;2023-05-10T12:55:39;1.73;;;0.40;;
13793;SDS011;31160;49.500;7.772;2023-05-10T12:58:06;1.00;;;0.57;;
13793;SDS011;31160;49.500;7.772;2023-05-10T13:00:33;2.37;;;0.50;;
13793;SDS011;31160;49.500;7.772;2023-05-10T13:03:00;3.23;;;0.73;;
13793;SDS011;31160;49.500;7.772;2023-05-10T13:05:27;1.27;;;0.50;;
13793;SDS011;31160;49.500;7.772;2023-05-10T13:07:53;1.70;;;0.37;;
13793;SDS011;31160;49.500;7.772;2023-05-10T13:10:20;0.50;;;0.40;;
13793;SDS011;31160;49.500;7.772;2023-05-10T13:12:48;1.13;;;0.50;;
13793;SDS011;31160;49.500;7.772;2023-05-10T13:15:15;0.60;;;0.30;;
13793;SDS011;31160;49.500;7.772;2023-05-10T13:17:42;2.43;;;0.43;;
13793;SDS011;31160;49.500;7.772;2023-05-10T13:20:09;1.67;;;0.50;;
13793;SDS011;31160;49.500;7.772;2023-05-10T13:22:37;3.73;;;0.40;;
13793;SDS011;31160;49.500;7.772;2023-05-10T13:25:06;0.73;;;0.33;;
13793;SDS011;31160;49.500;7.772;2023-05-10T13:27:33;4.07;;;0.43;;
13793;SDS011;31160;49.500;7.772;2023-05-10T13:29:59;0.63;;;0.30;;
13793;SDS011;31160;49.500;7.772;2023-05-10T13:32:26;0.83;;;0.40;;
13793;SDS011;31160;49.500;7.772;2023-05-10T13:34:53;0.97;;;0.40;;
13793;SDS011;31160;49.500;7.772;2023-05-10T13:37:20;0.73;;;0.30;;
13793;SDS011;31160;49.500;7.772;2023-05-10T13:39:47;0.50;;;0.40;;
13793;SDS011;31160;49.500;7.772;2023-05-10T13:42:14;1.67;;;0.47;;
13793;SDS011;31160;49.500;7.772;2023-05-10T13:44:41;3.17;;;0.60;;
13793;SDS011;31160;49.500;7.772;2023-05-10T13:47:08;0.70;;;0.30;;
13793;SDS011;31160;49.500;7.772;2023-05-10T13:49:36;1.17;;;0.30;;
13793;SDS011;31160;49.500;7.772;2023-05-10T13:52:03;1.13;;;0.40;;
13793;SDS011;31160;49.500;7.772;2023-05-10T13:54:33;0.40;;;0.30;;
13793;SDS011;31160;49.500;7.772;2023-05-10T13:57:00;0.60;;;0.30;;
13793;SDS011;31160;49.500;7.772;2023-05-10T13:59:28;2.07;;;0.40;;
13793;SDS011;31160;49.500;7.772;2023-05-10T14:01:55;0.83;;;0.40;;
13793;SDS011;31160;49.500;7.772;2023-05-10T14:04:22;1.13;;;0.40;;
13793;SDS011;31160;49.500;7.772;2023-05-10T14:06:48;1.40;;;0.50;;
13793;SDS011;31160;49.500;7.772;2023-05-10T14:09:15;1.07;;;0.50;;
13793;SDS011;31160;49.500;7.772;2023-05-10T14:11:42;0.93;;;0.70;;
13793;SDS011;31160;49.500;7.772;2023-05-10T14:14:11;0.93;;;0.40;;
13793;SDS011;31160;49.500;7.772;2023-05-10T14:16:42;2.03;;;0.57;;
13793;SDS011;31160;49.500;7.772;2023-05-10T14:19:10;1.10;;;0.30;;
13793;SDS011;31160;49.500;7.772;2023-05-10T14:21:38;1.13;;;0.50;;
13793;SDS011;31160;49.500;7.772;2023-05-10T14:24:04;0.63;;;0.30;;
13793;SDS011;31160;49.500;7.772;2023-05-10T14:26:33;2.27;;;0.40;;
13793;SDS011;31160;49.500;7.772;2023-05-10T14:29:02;1.80;;;0.40;;
13793;SDS011;31160;49.500;7.772;2023-05-10T14:31:29;0.20;;;0.20;;
13793;SDS011;31160;49.500;7.772;2023-05-10T14:33:57;1.83;;;0.30;;
13793;SDS011;31160;49.500;7.772;2023-05-10T14:36:25;0.40;;;0.30;;
13793;SDS011;31160;49.500;7.772;2023-05-10T14:38:52;0.83;;;0.20;;
13793;SDS011;31160;49.500;7.772;2023-05-10T14:41:18;2.30;;;0.40;;
13793;SDS011;31160;49.500;7.772;2023-05-10T14:43:45;0.80;;;0.40;;
13793;SDS011;31160;49.500;7.772;2023-05-10T14:46:12;1.00;;;0.30;;
13793;SDS011;31160;49.500;7.772;2023-05-10T14:48:39;0.60;;;0.40;;
13793;SDS011;31160;49.500;7.772;2023-05-10T14:51:05;1.57;;;0.40;;
13793;SDS011;31160;49.500;7.772;2023-05-10T14:53:32;2.47;;;0.30;;
13793;SDS011;31160;49.500;7.772;2023-05-10T14:55:59;1.93;;;0.40;;
13793;SDS011;31160;49.500;7.772;2023-05-10T14:58:27;1.03;;;0.40;;
13793;SDS011;31160;49.500;7.772;2023-05-10T15:00:54;1.53;;;0.30;;
13793;SDS011;31160;49.500;7.772;2023-05-10T15:03:21;0.60;;;0.30;;
13793;SDS011;31160;49.500;7.772;2023-05-10T15:05:49;2.03;;;0.40;;
13793;SDS011;31160;49.500;7.772;2023-05-10T15:08:16;0.90;;;0.30;;
13793;SDS011;31160;49.500;7.772;2023-05-10T15:10:42;1.90;;;0.40;;
13793;SDS011;31160;49.500;7.772;2023-05-10T15:13:09;1.13;;;0.40;;
13793;SDS011;31160;49.500;7.772;2023-05-10T15:15:35;2.00;;;0.50;;
13793;SDS011;31160;49.500;7.772;2023-05-10T15:18:02;1.70;;;0.50;;
13793;SDS011;31160;49.500;7.772;2023-05-10T15:20:30;1.37;;;0.40;;
13793;SDS011;31160;49.500;7.772;2023-05-10T15:22:57;1.20;;;0.23;;
13793;SDS011;31160;49.500;7.772;2023-05-10T15:25:24;0.40;;;0.30;;
13793;SDS011;31160;49.500;7.772;2023-05-10T15:27:51;1.30;;;0.30;;
13793;SDS011;31160;49.500;7.772;2023-05-10T15:30:17;2.87;;;0.40;;